sensor_id;sensor_type;location;lat;lon;timestamp;pressure;altitude;pressure_sealevel;temperature;humidity
34177;BME280;20450;49.074;9.158;2023-10-31T00:00:46;98166.41;;;13.39;100.00
34177;BME280;20450;49.074;9.158;2023-10-31T00:03:13;98175.06;;;13.31;100.00
34177;BME280;20450;49.074;9.158;2023-10-31T00:05:41;98186.19;;;13.30;100.00
34177;BME280;20450;49.074;9.158;2023-10-31T00:08:08;98198.44;;;13.47;100.00
34177;BME280;20450;49.074;9.158;2023-10-31T00:10:35;98188.69;;;13.46;100.00
34177;BME280;20450;49.074;9.158;2023-10-31T00:13:02;98199.22;;;13.43;100.00
34177;BME280;20450;49.074;9.158;2023-10-31T00:15:29;98215.53;;;13.48;100.00
34177;BME280;20450;49.074;9.158;2023-10-31T00:17:58;98220.41;;;13.46;100.00
34177;BME280;20450;49.074;9.158;2023-10-31T00:20:25;98217.97;;;13.54;99.20
34177;BME280;20450;49.074;9.158;2023-10-31T00:22:52;98219.03;;;13.43;98.49
34177;BME280;20450;49.074;9.158;2023-10-31T00:25:19;98220.91;;;13.33;98.18
34177;BME280;20450;49.074;9.158;2023-10-31T00:27:47;98233.41;;;13.39;98.61
34177;BME280;20450;49.074;9.158;2023-10-31T00:30:15;98243.69;;;13.37;98.71
34177;BME280;20450;49.074;9.158;2023-10-31T00:32:42;98239.59;;;13.29;97.95
34177;BME280;20450;49.074;9.158;2023-10-31T00:35:14;98231.72;;;13.28;97.91
34177;BME280;20450;49.074;9.158;2023-10-31T00:37:41;98236.06;;;13.29;98.04
34177;BME280;20450;49.074;9.158;2023-10-31T00:40:12;98244.22;;;13.34;99.10
34177;BME280;20450;49.074;9.158;2023-10-31T00:42:39;98243.41;;;13.33;98.07
34177;BME280;20450;49.074;9.158;2023-10-31T00:45:16;98259.13;;;13.26;96.54
34177;BME280;20450;49.074;9.158;2023-10-31T00:47:43;98247.97;;;13.23;95.44
34177;BME280;20450;49.074;9.158;2023-10-31T00:50:10;98250.72;;;13.28;95.66
34177;BME280;20450;49.074;9.158;2023-10-31T00:52:39;98256.41;;;13.26;95.04
34177;BME280;20450;49.074;9.158;2023-10-31T00:55:06;98252.06;;;13.25;92.82
34177;BME280;20450;49.074;9.158;2023-10-31T00:57:38;98254.16;;;13.08;91.56
34177;BME280;20450;49.074;9.158;2023-10-31T01:00:06;98249.53;;;13.04;92.00
34177;BME280;20450;49.074;9.158;2023-10-31T01:02:34;98246.81;;;13.04;92.39
34177;BME280;20450;49.074;9.158;2023-10-31T01:05:04;98250.91;;;13.11;92.29
34177;BME280;20450;49.074;9.158;2023-10-31T01:07:31;98253.94;;;13.15;92.79
34177;BME280;20450;49.074;9.158;2023-10-31T01:10:02;98260.41;;;13.14;91.92
34177;BME280;20450;49.074;9.158;2023-10-31T01:12:30;98249.53;;;13.04;90.97
34177;BME280;20450;49.074;9.158;2023-10-31T01:14:58;98262.59;;;13.12;92.01
34177;BME280;20450;49.074;9.158;2023-10-31T01:17:25;98259.28;;;13.00;90.04
34177;BME280;20450;49.074;9.158;2023-10-31T01:19:53;98252.81;;;13.11;91.30
34177;BME280;20450;49.074;9.158;2023-10-31T01:22:20;98263.38;;;13.12;91.21
34177;BME280;20450;49.074;9.158;2023-10-31T01:24:50;98265.91;;;13.24;91.00
34177;BME280;20450;49.074;9.158;2023-10-31T01:27:18;98245.78;;;13.15;89.37
34177;BME280;20450;49.074;9.158;2023-10-31T01:29:47;98244.09;;;13.04;88.81
34177;BME280;20450;49.074;9.158;2023-10-31T01:32:14;98246.22;;;12.97;87.75
34177;BME280;20450;49.074;9.158;2023-10-31T01:34:48;98231.03;;;12.96;88.42
34177;BME280;20450;49.074;9.158;2023-10-31T01:37:16;98240.53;;;12.98;88.69
34177;BME280;20450;49.074;9.158;2023-10-31T01:39:42;98241.63;;;12.97;89.70
34177;BME280;20450;49.074;9.158;2023-10-31T01:42:13;98252.72;;;12.96;88.29
34177;BME280;20450;49.074;9.158;2023-10-31T01:44:43;98257.03;;;12.92;87.26
34177;BME280;20450;49.074;9.158;2023-10-31T01:47:10;98267.19;;;12.70;87.38
34177;BME280;20450;49.074;9.158;2023-10-31T01:49:38;98276.16;;;12.70;87.74
34177;BME280;20450;49.074;9.158;2023-10-31T01:52:06;98295.38;;;12.69;87.60
34177;BME280;20450;49.074;9.158;2023-10-31T01:54:34;98288.25;;;12.58;87.28
34177;BME280;20450;49.074;9.158;2023-10-31T01:57:02;98280.44;;;12.61;87.62
34177;BME280;20450;49.074;9.158;2023-10-31T01:59:32;98287.25;;;12.74;87.57
34177;BME280;20450;49.074;9.158;2023-10-31T02:02:03;98287.25;;;12.69;86.61
34177;BME280;20450;49.074;9.158;2023-10-31T02:04:31;98293.72;;;12.68;86.43
34177;BME280;20450;49.074;9.158;2023-10-31T02:06:59;98299.16;;;12.68;85.78
34177;BME280;20450;49.074;9.158;2023-10-31T02:09:27;98298.63;;;12.71;86.14
34177;BME280;20450;49.074;9.158;2023-10-31T02:11:54;98301.38;;;12.76;85.77
34177;BME280;20450;49.074;9.158;2023-10-31T02:14:23;98302.19;;;12.76;85.50
34177;BME280;20450;49.074;9.158;2023-10-31T02:16:53;98318.97;;;12.73;85.49
34177;BME280;20450;49.074;9.158;2023-10-31T02:19:21;98313.84;;;12.77;84.82
34177;BME280;20450;49.074;9.158;2023-10-31T02:21:50;98320.91;;;12.83;84.37
34177;BME280;20450;49.074;9.158;2023-10-31T02:24:17;98317.47;;;12.92;84.48
34177;BME280;20450;49.074;9.158;2023-10-31T02:26:46;98316.91;;;12.90;84.14
34177;BME280;20450;49.074;9.158;2023-10-31T02:29:14;98314.50;;;12.94;84.25
34177;BME280;20450;49.074;9.158;2023-10-31T02:31:43;98317.72;;;12.91;83.86
34177;BME280;20450;49.074;9.158;2023-10-31T02:34:10;98328.56;;;12.91;83.98
34177;BME280;20450;49.074;9.158;2023-10-31T02:36:39;98320.38;;;12.81;84.98
34177;BME280;20450;49.074;9.158;2023-10-31T02:39:09;98318.47;;;12.81;83.03
34177;BME280;20450;49.074;9.158;2023-10-31T02:41:37;98325.25;;;12.79;82.45
34177;BME280;20450;49.074;9.158;2023-10-31T02:44:05;98328.25;;;12.82;82.51
34177;BME280;20450;49.074;9.158;2023-10-31T02:46:33;98336.66;;;12.86;83.21
34177;BME280;20450;49.074;9.158;2023-10-31T02:49:04;98332.91;;;12.87;83.19
34177;BME280;20450;49.074;9.158;2023-10-31T02:51:31;98332.38;;;12.90;82.75
34177;BME280;20450;49.074;9.158;2023-10-31T02:54:03;98337.00;;;12.94;83.04
34177;BME280;20450;49.074;9.158;2023-10-31T02:56:32;98352.34;;;12.79;82.64
34177;BME280;20450;49.074;9.158;2023-10-31T02:58:59;98352.66;;;12.51;82.72
34177;BME280;20450;49.074;9.158;2023-10-31T03:01:29;98348.34;;;12.50;84.13
34177;BME280;20450;49.074;9.158;2023-10-31T03:03:59;98354.53;;;12.45;83.67
34177;BME280;20450;49.074;9.158;2023-10-31T03:06:28;98355.16;;;12.57;84.10
34177;BME280;20450;49.074;9.158;2023-10-31T03:08:58;98362.03;;;12.70;83.81
34177;BME280;20450;49.074;9.158;2023-10-31T03:11:26;98357.69;;;12.69;83.24
34177;BME280;20450;49.074;9.158;2023-10-31T03:13:57;98358.69;;;12.58;83.47
34177;BME280;20450;49.074;9.158;2023-10-31T03:16:25;98369.31;;;12.64;82.65
34177;BME280;20450;49.074;9.158;2023-10-31T03:18:52;98373.38;;;12.67;82.89
34177;BME280;20450;49.074;9.158;2023-10-31T03:21:22;98379.00;;;12.60;82.85
34177;BME280;20450;49.074;9.158;2023-10-31T03:23:50;98380.19;;;12.38;82.74
34177;BME280;20450;49.074;9.158;2023-10-31T03:26:20;98370.00;;;12.50;82.64
34177;BME280;20450;49.074;9.158;2023-10-31T03:28:51;98372.81;;;12.65;82.54
34177;BME280;20450;49.074;9.158;2023-10-31T03:31:20;98371.50;;;12.67;81.91
34177;BME280;20450;49.074;9.158;2023-10-31T03:33:48;98368.66;;;12.52;82.02
34177;BME280;20450;49.074;9.158;2023-10-31T03:36:18;98378.31;;;12.43;82.26
34177;BME280;20450;49.074;9.158;2023-10-31T03:38:45;98371.06;;;12.49;82.77
34177;BME280;20450;49.074;9.158;2023-10-31T03:41:14;98382.25;;;12.57;82.17
34177;BME280;20450;49.074;9.158;2023-10-31T03:43:42;98379.88;;;12.66;82.48
34177;BME280;20450;49.074;9.158;2023-10-31T03:46:11;98383.75;;;12.75;81.39
34177;BME280;20450;49.074;9.158;2023-10-31T03:48:41;98388.84;;;12.71;80.86
34177;BME280;20450;49.074;9.158;2023-10-31T03:51:08;98387.06;;;12.82;80.49
34177;BME280;20450;49.074;9.158;2023-10-31T03:53:36;98387.31;;;12.80;79.68
34177;BME280;20450;49.074;9.158;2023-10-31T03:56:04;98383.75;;;12.75;79.51
34177;BME280;20450;49.074;9.158;2023-10-31T03:58:31;98383.91;;;12.63;79.49
34177;BME280;20450;49.074;9.158;2023-10-31T04:00:58;98390.19;;;12.69;80.16
34177;BME280;20450;49.074;9.158;2023-10-31T04:03:25;98391.91;;;12.80;79.43
34177;BME280;20450;49.074;9.158;2023-10-31T04:05:58;98394.91;;;12.83;79.03
34177;BME280;20450;49.074;9.158;2023-10-31T04:08:26;98389.41;;;12.42;78.43
34177;BME280;20450;49.074;9.158;2023-10-31T04:10:53;98395.56;;;12.64;78.95
34177;BME280;20450;49.074;9.158;2023-10-31T04:13:21;98394.84;;;12.73;80.22
34177;BME280;20450;49.074;9.158;2023-10-31T04:15:50;98396.53;;;12.79;77.27
34177;BME280;20450;49.074;9.158;2023-10-31T04:18:19;98397.13;;;12.86;77.40
34177;BME280;20450;49.074;9.158;2023-10-31T04:20:50;98397.41;;;12.90;76.46
34177;BME280;20450;49.074;9.158;2023-10-31T04:23:18;98392.78;;;12.90;76.39
34177;BME280;20450;49.074;9.158;2023-10-31T04:25:47;98400.06;;;12.85;76.33
34177;BME280;20450;49.074;9.158;2023-10-31T04:28:14;98393.84;;;12.84;76.88
34177;BME280;20450;49.074;9.158;2023-10-31T04:30:43;98399.09;;;12.96;76.65
34177;BME280;20450;49.074;9.158;2023-10-31T04:33:10;98403.03;;;12.83;76.31
34177;BME280;20450;49.074;9.158;2023-10-31T04:35:37;98415.34;;;12.96;76.70
34177;BME280;20450;49.074;9.158;2023-10-31T04:38:05;98409.09;;;12.95;75.27
34177;BME280;20450;49.074;9.158;2023-10-31T04:40:33;98407.84;;;13.03;75.68
34177;BME280;20450;49.074;9.158;2023-10-31T04:43:01;98411.63;;;13.02;75.09
34177;BME280;20450;49.074;9.158;2023-10-31T04:45:28;98422.03;;;13.15;75.12
34177;BME280;20450;49.074;9.158;2023-10-31T04:47:55;98416.81;;;13.08;75.79
34177;BME280;20450;49.074;9.158;2023-10-31T04:50:22;98424.44;;;13.11;77.12
34177;BME280;20450;49.074;9.158;2023-10-31T04:52:50;98426.88;;;13.13;74.43
34177;BME280;20450;49.074;9.158;2023-10-31T04:55:17;98434.44;;;13.11;73.82
34177;BME280;20450;49.074;9.158;2023-10-31T04:57:46;98436.63;;;13.09;73.85
34177;BME280;20450;49.074;9.158;2023-10-31T05:00:13;98435.22;;;13.01;74.10
34177;BME280;20450;49.074;9.158;2023-10-31T05:02:43;98429.16;;;12.94;73.57
34177;BME280;20450;49.074;9.158;2023-10-31T05:05:14;98426.25;;;13.01;74.02
34177;BME280;20450;49.074;9.158;2023-10-31T05:07:43;98422.66;;;12.95;75.26
34177;BME280;20450;49.074;9.158;2023-10-31T05:10:20;98429.03;;;13.11;74.53
34177;BME280;20450;49.074;9.158;2023-10-31T05:12:50;98424.41;;;13.06;73.35
34177;BME280;20450;49.074;9.158;2023-10-31T05:15:18;98430.69;;;13.12;73.62
34177;BME280;20450;49.074;9.158;2023-10-31T05:17:45;98427.91;;;13.02;73.51
34177;BME280;20450;49.074;9.158;2023-10-31T05:20:14;98442.72;;;12.94;73.46
34177;BME280;20450;49.074;9.158;2023-10-31T05:22:42;98456.47;;;12.88;73.44
34177;BME280;20450;49.074;9.158;2023-10-31T05:25:11;98451.09;;;12.93;74.26
34177;BME280;20450;49.074;9.158;2023-10-31T05:27:39;98447.56;;;12.92;73.95
34177;BME280;20450;49.074;9.158;2023-10-31T05:30:09;98457.06;;;12.95;74.02
34177;BME280;20450;49.074;9.158;2023-10-31T05:32:38;98458.47;;;12.97;73.86
34177;BME280;20450;49.074;9.158;2023-10-31T05:35:06;98454.44;;;13.00;73.55
34177;BME280;20450;49.074;9.158;2023-10-31T05:37:33;98458.44;;;12.66;73.28
34177;BME280;20450;49.074;9.158;2023-10-31T05:40:01;98462.09;;;12.81;74.23
34177;BME280;20450;49.074;9.158;2023-10-31T05:42:29;98466.50;;;12.87;73.47
34177;BME280;20450;49.074;9.158;2023-10-31T05:44:57;98469.00;;;12.94;73.81
34177;BME280;20450;49.074;9.158;2023-10-31T05:47:26;98461.69;;;12.94;73.92
34177;BME280;20450;49.074;9.158;2023-10-31T05:49:53;98466.94;;;12.48;74.91
34177;BME280;20450;49.074;9.158;2023-10-31T05:52:20;98476.75;;;12.54;74.95
34177;BME280;20450;49.074;9.158;2023-10-31T05:54:47;98471.84;;;12.51;75.70
34177;BME280;20450;49.074;9.158;2023-10-31T05:57:15;98477.31;;;12.56;75.56
34177;BME280;20450;49.074;9.158;2023-10-31T05:59:47;98488.00;;;12.67;75.13
34177;BME280;20450;49.074;9.158;2023-10-31T06:02:16;98488.59;;;12.74;74.88
34177;BME280;20450;49.074;9.158;2023-10-31T06:04:46;98492.22;;;12.85;74.82
34177;BME280;20450;49.074;9.158;2023-10-31T06:07:13;98493.31;;;12.84;74.28
34177;BME280;20450;49.074;9.158;2023-10-31T06:09:40;98496.88;;;12.89;73.95
34177;BME280;20450;49.074;9.158;2023-10-31T06:12:09;98497.81;;;13.00;74.36
34177;BME280;20450;49.074;9.158;2023-10-31T06:14:38;98500.31;;;13.06;73.41
34177;BME280;20450;49.074;9.158;2023-10-31T06:17:05;98490.31;;;13.12;72.76
34177;BME280;20450;49.074;9.158;2023-10-31T06:19:34;98491.38;;;13.11;73.03
34177;BME280;20450;49.074;9.158;2023-10-31T06:22:02;98490.59;;;13.15;73.07
34177;BME280;20450;49.074;9.158;2023-10-31T06:24:30;98503.06;;;13.11;73.71
34177;BME280;20450;49.074;9.158;2023-10-31T06:26:57;98512.56;;;13.14;73.06
34177;BME280;20450;49.074;9.158;2023-10-31T06:29:25;98515.25;;;13.09;72.39
34177;BME280;20450;49.074;9.158;2023-10-31T06:32:14;98518.28;;;12.91;72.28
34177;BME280;20450;49.074;9.158;2023-10-31T06:34:42;98535.06;;;12.88;73.42
34177;BME280;20450;49.074;9.158;2023-10-31T06:37:11;98536.13;;;12.60;73.77
34177;BME280;20450;49.074;9.158;2023-10-31T06:39:42;98539.75;;;12.71;73.86
34177;BME280;20450;49.074;9.158;2023-10-31T06:42:09;98540.22;;;12.63;74.38
34177;BME280;20450;49.074;9.158;2023-10-31T06:44:36;98544.97;;;12.51;73.98
34177;BME280;20450;49.074;9.158;2023-10-31T06:47:04;98538.69;;;12.45;74.06
34177;BME280;20450;49.074;9.158;2023-10-31T06:49:32;98545.09;;;12.61;74.10
34177;BME280;20450;49.074;9.158;2023-10-31T06:51:58;98551.94;;;12.68;73.80
34177;BME280;20450;49.074;9.158;2023-10-31T06:54:27;98547.94;;;12.76;73.58
34177;BME280;20450;49.074;9.158;2023-10-31T06:56:54;98550.34;;;12.72;72.86
34177;BME280;20450;49.074;9.158;2023-10-31T06:59:22;98554.88;;;12.88;72.42
34177;BME280;20450;49.074;9.158;2023-10-31T07:01:49;98556.56;;;12.94;72.23
34177;BME280;20450;49.074;9.158;2023-10-31T07:04:16;98561.53;;;13.02;71.86
34177;BME280;20450;49.074;9.158;2023-10-31T07:06:44;98567.16;;;12.96;72.14
34177;BME280;20450;49.074;9.158;2023-10-31T07:09:12;98566.69;;;13.04;71.89
34177;BME280;20450;49.074;9.158;2023-10-31T07:11:41;98565.47;;;12.90;72.08
34177;BME280;20450;49.074;9.158;2023-10-31T07:14:08;98575.78;;;12.93;72.43
34177;BME280;20450;49.074;9.158;2023-10-31T07:16:37;98581.25;;;12.98;71.72
34177;BME280;20450;49.074;9.158;2023-10-31T07:19:06;98594.16;;;13.12;72.15
34177;BME280;20450;49.074;9.158;2023-10-31T07:21:33;98594.78;;;13.19;72.18
34177;BME280;20450;49.074;9.158;2023-10-31T07:24:01;98593.88;;;13.09;71.71
34177;BME280;20450;49.074;9.158;2023-10-31T07:26:28;98596.59;;;13.14;71.66
34177;BME280;20450;49.074;9.158;2023-10-31T07:28:57;98597.34;;;13.04;71.88
34177;BME280;20450;49.074;9.158;2023-10-31T07:31:25;98595.22;;;13.06;72.44
34177;BME280;20450;49.074;9.158;2023-10-31T07:33:52;98600.09;;;13.09;72.54
34177;BME280;20450;49.074;9.158;2023-10-31T07:36:19;98599.63;;;13.17;72.21
34177;BME280;20450;49.074;9.158;2023-10-31T07:38:46;98608.13;;;13.26;72.19
34177;BME280;20450;49.074;9.158;2023-10-31T07:41:13;98603.88;;;13.35;71.98
34177;BME280;20450;49.074;9.158;2023-10-31T07:43:40;98617.41;;;13.30;72.14
34177;BME280;20450;49.074;9.158;2023-10-31T07:46:09;98615.22;;;13.32;72.07
34177;BME280;20450;49.074;9.158;2023-10-31T07:48:36;98615.63;;;13.45;71.24
34177;BME280;20450;49.074;9.158;2023-10-31T07:51:04;98622.06;;;13.39;71.93
34177;BME280;20450;49.074;9.158;2023-10-31T07:53:31;98616.81;;;13.28;71.87
34177;BME280;20450;49.074;9.158;2023-10-31T07:55:57;98634.97;;;13.27;71.81
34177;BME280;20450;49.074;9.158;2023-10-31T07:58:24;98630.91;;;13.25;71.97
34177;BME280;20450;49.074;9.158;2023-10-31T08:00:52;98635.22;;;13.21;72.80
34177;BME280;20450;49.074;9.158;2023-10-31T08:03:20;98631.31;;;13.38;73.01
34177;BME280;20450;49.074;9.158;2023-10-31T08:05:48;98624.84;;;13.44;72.20
34177;BME280;20450;49.074;9.158;2023-10-31T08:08:16;98635.56;;;13.61;71.75
34177;BME280;20450;49.074;9.158;2023-10-31T08:10:43;98628.53;;;13.65;71.13
34177;BME280;20450;49.074;9.158;2023-10-31T08:13:10;98637.84;;;13.74;71.51
34177;BME280;20450;49.074;9.158;2023-10-31T08:15:37;98647.63;;;13.75;71.59
34177;BME280;20450;49.074;9.158;2023-10-31T08:18:04;98640.03;;;13.77;70.95
34177;BME280;20450;49.074;9.158;2023-10-31T08:20:36;98652.13;;;13.91;70.11
34177;BME280;20450;49.074;9.158;2023-10-31T08:23:03;98647.97;;;13.83;70.19
34177;BME280;20450;49.074;9.158;2023-10-31T08:25:31;98664.03;;;13.90;69.84
34177;BME280;20450;49.074;9.158;2023-10-31T08:27:59;98664.66;;;14.02;69.89
34177;BME280;20450;49.074;9.158;2023-10-31T08:30:26;98656.31;;;14.09;70.23
34177;BME280;20450;49.074;9.158;2023-10-31T08:32:52;98651.72;;;14.14;69.83
34177;BME280;20450;49.074;9.158;2023-10-31T08:35:20;98665.59;;;14.18;69.34
34177;BME280;20450;49.074;9.158;2023-10-31T08:37:49;98665.28;;;14.14;68.53
34177;BME280;20450;49.074;9.158;2023-10-31T08:40:16;98679.59;;;14.31;69.14
34177;BME280;20450;49.074;9.158;2023-10-31T08:42:43;98678.28;;;14.07;69.98
34177;BME280;20450;49.074;9.158;2023-10-31T08:45:11;98683.53;;;14.19;69.58
34177;BME280;20450;49.074;9.158;2023-10-31T08:47:38;98682.56;;;14.30;68.67
34177;BME280;20450;49.074;9.158;2023-10-31T08:50:07;98684.81;;;14.48;68.65
34177;BME280;20450;49.074;9.158;2023-10-31T08:52:34;98686.22;;;14.55;68.58
34177;BME280;20450;49.074;9.158;2023-10-31T08:55:04;98692.22;;;14.57;68.72
34177;BME280;20450;49.074;9.158;2023-10-31T08:57:32;98693.31;;;14.61;68.03
34177;BME280;20450;49.074;9.158;2023-10-31T08:59:59;98694.19;;;14.72;67.49
34177;BME280;20450;49.074;9.158;2023-10-31T09:02:29;98685.03;;;14.83;66.47
34177;BME280;20450;49.074;9.158;2023-10-31T09:04:56;98681.03;;;15.05;65.22
34177;BME280;20450;49.074;9.158;2023-10-31T09:07:24;98692.00;;;15.35;64.78
34177;BME280;20450;49.074;9.158;2023-10-31T09:09:53;98689.00;;;15.32;64.56
34177;BME280;20450;49.074;9.158;2023-10-31T09:12:21;98688.47;;;15.35;64.89
34177;BME280;20450;49.074;9.158;2023-10-31T09:14:49;98688.72;;;15.33;63.98
34177;BME280;20450;49.074;9.158;2023-10-31T09:17:16;98695.03;;;15.49;63.75
34177;BME280;20450;49.074;9.158;2023-10-31T09:19:44;98693.16;;;15.49;64.10
34177;BME280;20450;49.074;9.158;2023-10-31T09:22:11;98700.22;;;15.45;63.88
34177;BME280;20450;49.074;9.158;2023-10-31T09:24:40;98698.09;;;15.73;63.17
34177;BME280;20450;49.074;9.158;2023-10-31T09:27:15;98697.00;;;15.89;62.43
34177;BME280;20450;49.074;9.158;2023-10-31T09:29:49;98705.19;;;15.99;61.64
34177;BME280;20450;49.074;9.158;2023-10-31T09:32:18;98704.63;;;15.97;61.97
34177;BME280;20450;49.074;9.158;2023-10-31T09:34:46;98697.00;;;15.73;62.71
34177;BME280;20450;49.074;9.158;2023-10-31T09:37:18;98700.00;;;16.02;61.76
34177;BME280;20450;49.074;9.158;2023-10-31T09:39:47;98690.47;;;15.69;62.05
34177;BME280;20450;49.074;9.158;2023-10-31T09:42:17;98698.09;;;15.93;61.92
34177;BME280;20450;49.074;9.158;2023-10-31T09:44:50;98696.97;;;16.59;68.14
34177;BME280;20450;49.074;9.158;2023-10-31T09:47:20;98700.28;;;16.31;61.09
34177;BME280;20450;49.074;9.158;2023-10-31T09:49:47;98705.16;;;16.54;60.65
34177;BME280;20450;49.074;9.158;2023-10-31T09:52:16;98707.09;;;16.48;59.66
34177;BME280;20450;49.074;9.158;2023-10-31T09:54:44;98712.16;;;16.85;59.03
34177;BME280;20450;49.074;9.158;2023-10-31T09:57:14;98697.19;;;16.82;58.88
34177;BME280;20450;49.074;9.158;2023-10-31T09:59:42;98702.44;;;16.39;59.94
34177;BME280;20450;49.074;9.158;2023-10-31T10:02:16;98692.09;;;16.06;60.75
34177;BME280;20450;49.074;9.158;2023-10-31T10:04:43;98688.84;;;16.04;61.60
34177;BME280;20450;49.074;9.158;2023-10-31T10:07:16;98683.94;;;15.86;61.79
34177;BME280;20450;49.074;9.158;2023-10-31T10:09:48;98681.50;;;15.74;62.56
34177;BME280;20450;49.074;9.158;2023-10-31T10:12:16;98684.75;;;15.81;62.65
34177;BME280;20450;49.074;9.158;2023-10-31T10:14:45;98690.75;;;15.68;63.31
34177;BME280;20450;49.074;9.158;2023-10-31T10:17:20;98687.97;;;15.58;63.88
34177;BME280;20450;49.074;9.158;2023-10-31T10:20:04;98676.03;;;15.59;63.41
34177;BME280;20450;49.074;9.158;2023-10-31T10:22:32;98686.41;;;15.77;63.13
34177;BME280;20450;49.074;9.158;2023-10-31T10:25:06;98695.38;;;15.98;63.35
34177;BME280;20450;49.074;9.158;2023-10-31T10:27:34;98710.09;;;16.17;62.35
34177;BME280;20450;49.074;9.158;2023-10-31T10:30:02;98702.72;;;16.07;62.47
34177;BME280;20450;49.074;9.158;2023-10-31T10:32:31;98707.06;;;16.28;61.76
34177;BME280;20450;49.074;9.158;2023-10-31T10:34:58;98709.81;;;16.18;61.44
34177;BME280;20450;49.074;9.158;2023-10-31T10:37:29;98717.69;;;16.65;61.10
34177;BME280;20450;49.074;9.158;2023-10-31T10:40:00;98702.19;;;16.30;60.77
34177;BME280;20450;49.074;9.158;2023-10-31T10:42:31;98702.72;;;16.47;61.15
34177;BME280;20450;49.074;9.158;2023-10-31T10:45:02;98705.13;;;16.69;61.30
34177;BME280;20450;49.074;9.158;2023-10-31T10:47:45;98705.22;;;17.17;59.69
34177;BME280;20450;49.074;9.158;2023-10-31T10:50:14;98704.31;;;17.32;59.72
34177;BME280;20450;49.074;9.158;2023-10-31T10:52:49;98699.47;;;17.24;59.57
34177;BME280;20450;49.074;9.158;2023-10-31T10:55:25;98708.22;;;17.16;59.57
34177;BME280;20450;49.074;9.158;2023-10-31T10:58:01;98704.75;;;17.00;59.90
34177;BME280;20450;49.074;9.158;2023-10-31T11:00:31;98694.81;;;16.56;60.71
34177;BME280;20450;49.074;9.158;2023-10-31T11:03:00;98697.56;;;17.19;60.00
34177;BME280;20450;49.074;9.158;2023-10-31T11:05:31;98693.63;;;16.87;60.32
34177;BME280;20450;49.074;9.158;2023-10-31T11:08:01;98700.50;;;16.59;61.12
34177;BME280;20450;49.074;9.158;2023-10-31T11:10:32;98701.56;;;16.68;60.73
34177;BME280;20450;49.074;9.158;2023-10-31T11:13:02;98709.16;;;16.81;60.90
34177;BME280;20450;49.074;9.158;2023-10-31T11:15:29;98700.19;;;16.76;61.53
34177;BME280;20450;49.074;9.158;2023-10-31T11:18:01;98705.66;;;16.76;61.80
34177;BME280;20450;49.074;9.158;2023-10-31T11:20:33;98701.28;;;16.70;62.13
34177;BME280;20450;49.074;9.158;2023-10-31T11:23:02;98707.63;;;16.45;62.02
34177;BME280;20450;49.074;9.158;2023-10-31T11:25:32;98712.53;;;16.43;61.74
34177;BME280;20450;49.074;9.158;2023-10-31T11:28:11;98712.25;;;16.35;62.04
34177;BME280;20450;49.074;9.158;2023-10-31T11:30:41;98713.59;;;16.37;63.20
34177;BME280;20450;49.074;9.158;2023-10-31T11:33:13;98717.94;;;16.38;62.41
34177;BME280;20450;49.074;9.158;2023-10-31T11:35:50;98720.44;;;16.50;62.76
34177;BME280;20450;49.074;9.158;2023-10-31T11:38:31;98715.41;;;16.92;61.10
34177;BME280;20450;49.074;9.158;2023-10-31T11:41:03;98711.38;;;16.74;60.97
34177;BME280;20450;49.074;9.158;2023-10-31T11:43:51;98710.53;;;16.84;60.89
34177;BME280;20450;49.074;9.158;2023-10-31T11:46:25;98716.84;;;16.74;61.77
34177;BME280;20450;49.074;9.158;2023-10-31T11:48:57;98721.50;;;16.24;63.28
34177;BME280;20450;49.074;9.158;2023-10-31T11:51:27;98734.88;;;16.05;62.90
34177;BME280;20450;49.074;9.158;2023-10-31T11:53:56;98729.97;;;16.07;63.16
34177;BME280;20450;49.074;9.158;2023-10-31T11:56:23;98730.50;;;16.04;63.20
34177;BME280;20450;49.074;9.158;2023-10-31T11:58:58;98729.97;;;16.12;63.45
34177;BME280;20450;49.074;9.158;2023-10-31T12:01:31;98740.59;;;16.14;62.40
34177;BME280;20450;49.074;9.158;2023-10-31T12:04:00;98749.03;;;16.07;62.58
34177;BME280;20450;49.074;9.158;2023-10-31T12:06:30;98744.16;;;16.24;62.69
34177;BME280;20450;49.074;9.158;2023-10-31T12:09:00;98737.88;;;16.14;62.01
34177;BME280;20450;49.074;9.158;2023-10-31T12:11:29;98744.94;;;15.95;62.90
34177;BME280;20450;49.074;9.158;2023-10-31T12:14:02;98742.50;;;16.13;62.64
34177;BME280;20450;49.074;9.158;2023-10-31T12:16:32;98750.13;;;16.31;62.42
34177;BME280;20450;49.074;9.158;2023-10-31T12:19:03;98748.53;;;16.45;62.42
34177;BME280;20450;49.074;9.158;2023-10-31T12:21:53;98757.44;;;16.86;61.00
34177;BME280;20450;49.074;9.158;2023-10-31T12:24:26;98757.94;;;16.98;61.12
34177;BME280;20450;49.074;9.158;2023-10-31T12:27:01;98756.09;;;16.88;60.84
34177;BME280;20450;49.074;9.158;2023-10-31T12:29:28;98760.66;;;17.08;60.15
34177;BME280;20450;49.074;9.158;2023-10-31T12:31:59;98750.34;;;16.90;60.37
34177;BME280;20450;49.074;9.158;2023-10-31T12:34:44;98754.44;;;16.92;60.13
34177;BME280;20450;49.074;9.158;2023-10-31T12:37:11;98759.38;;;16.80;60.33
34177;BME280;20450;49.074;9.158;2023-10-31T12:39:38;98757.78;;;16.54;61.69
34177;BME280;20450;49.074;9.158;2023-10-31T12:42:10;98761.59;;;16.33;62.20
34177;BME280;20450;49.074;9.158;2023-10-31T12:44:38;98765.66;;;16.41;62.15
34177;BME280;20450;49.074;9.158;2023-10-31T12:47:07;98772.75;;;16.37;62.29
34177;BME280;20450;49.074;9.158;2023-10-31T12:49:34;98768.94;;;16.33;63.08
34177;BME280;20450;49.074;9.158;2023-10-31T12:52:04;98762.94;;;16.41;63.50
34177;BME280;20450;49.074;9.158;2023-10-31T12:54:33;98771.69;;;16.48;63.62
34177;BME280;20450;49.074;9.158;2023-10-31T12:57:02;98768.97;;;16.53;62.84
34177;BME280;20450;49.074;9.158;2023-10-31T12:59:31;98765.97;;;16.54;63.38
34177;BME280;20450;49.074;9.158;2023-10-31T13:02:00;98766.78;;;16.50;63.69
34177;BME280;20450;49.074;9.158;2023-10-31T13:04:30;98766.22;;;16.18;64.80
34177;BME280;20450;49.074;9.158;2023-10-31T13:06:59;98767.56;;;16.15;65.38
34177;BME280;20450;49.074;9.158;2023-10-31T13:09:32;98775.44;;;15.97;66.27